Time,TemperatureF,DewpointF,PressureIn,WindDirection,WindDirectionDegrees,WindSpeedMPH,WindSpeedGustMPH,Humidity,HourlyPrecipIn,Conditions,Clouds,dailyrainin,SoftwareType,DateUTC
2013-02-21 00:03:00,19.0,12.0,29.69,SW,225,13.0,19.0,77,0.00,,,0.00,TxWx,2013-02-21 05:03:00,
2013-02-21 00:08:00,19.0,12.0,29.69,WSW,247,16.0,16.0,77,0.00,,,0.00,TxWx,2013-02-21 05:08:00,
2013-02-21 00:13:00,20.0,13.0,29.69,SSW,202,14.0,25.0,77,0.00,,,0.00,TxWx,2013-02-21 05:13:00,
2013-02-21 00:19:00,19.0,12.0,29.69,WSW,247,16.0,16.0,77,0.00,,,0.00,TxWx,2013-02-21 05:19:00,
2013-02-21 00:24:00,19.0,12.0,29.69,WSW,247,18.0,18.0,77,0.00,,,0.00,TxWx,2013-02-21 05:24:00,
2013-02-21 00:32:00,19.0,12.0,29.69,SW,225,16.0,19.0,76,0.00,,,0.00,TxWx,2013-02-21 05:32:00,
2013-02-21 00:37:00,19.0,12.0,29.69,West,270,12.0,15.0,76,0.00,,,0.00,TxWx,2013-02-21 05:37:00,
2013-02-21 00:42:00,18.0,11.0,29.69,SW,225,11.0,12.0,77,0.00,,,0.00,TxWx,2013-02-21 05:42:00,
2013-02-21 00:47:00,18.0,12.0,29.69,SW,225,15.0,15.0,77,0.00,,,0.00,TxWx,2013-02-21 05:47:00,
2013-02-21 00:52:00,19.0,12.0,29.69,WSW,247,6.0,7.0,77,0.00,,,0.00,TxWx,2013-02-21 05:52:00,
2013-02-21 00:57:00,18.0,11.0,29.69,SW,225,14.0,20.0,77,0.00,,,0.00,TxWx,2013-02-21 05:57:00,
2013-02-21 01:01:00,19.0,12.0,29.69,West,270,12.0,16.0,77,0.00,,,0.00,TxWx,2013-02-21 06:01:00,
2013-02-21 01:06:00,19.0,12.0,29.69,SW,225,11.0,11.0,76,0.00,,,0.00,TxWx,2013-02-21 06:06:00,
2013-02-21 01:12:00,19.0,12.0,29.69,WSW,247,14.0,14.0,77,0.00,,,0.00,TxWx,2013-02-21 06:12:00,
2013-02-21 01:17:00,18.0,11.0,29.69,West,270,9.0,10.0,77,0.00,,,0.00,TxWx,2013-02-21 06:17:00,
2013-02-21 01:22:00,18.0,11.0,29.69,West,270,8.0,11.0,78,0.00,,,0.00,TxWx,2013-02-21 06:22:00,
2013-02-21 01:27:00,19.0,12.0,29.69,SW,225,19.0,23.0,78,0.00,,,0.00,TxWx,2013-02-21 06:27:00,
2013-02-21 01:32:00,18.0,11.0,29.69,SW,225,16.0,23.0,78,0.00,,,0.00,TxWx,2013-02-21 06:32:00,
2013-02-21 01:37:00,18.0,11.0,29.69,West,270,8.0,8.0,78,0.00,,,0.00,TxWx,2013-02-21 06:37:00,
2013-02-21 01:42:00,18.0,11.0,29.69,West,270,11.0,17.0,78,0.00,,,0.00,TxWx,2013-02-21 06:42:00,
2013-02-21 01:47:00,19.0,12.0,29.69,WSW,247,10.0,14.0,78,0.00,,,0.00,TxWx,2013-02-21 06:47:00,
2013-02-21 01:52:00,18.0,12.0,29.68,West,270,8.0,11.0,78,0.00,,,0.00,TxWx,2013-02-21 06:52:00,
2013-02-21 01:57:00,18.0,11.0,29.68,SW,225,16.0,17.0,77,0.00,,,0.00,TxWx,2013-02-21 06:57:00,
2013-02-21 02:02:00,18.0,11.0,29.68,SW,225,15.0,16.0,77,0.00,,,0.00,TxWx,2013-02-21 07:02:00,
2013-02-21 02:07:00,18.0,11.0,29.68,SSW,202,8.0,8.0,77,0.00,,,0.00,TxWx,2013-02-21 07:07:00,
2013-02-21 02:12:00,18.0,11.0,29.68,WSW,247,8.0,10.0,77,0.00,,,0.00,TxWx,2013-02-21 07:12:00,
2013-02-21 02:17:00,18.0,11.0,29.68,SW,225,16.0,16.0,77,0.00,,,0.00,TxWx,2013-02-21 07:17:00,
2013-02-21 02:22:00,18.0,11.0,29.68,WSW,247,23.0,24.0,77,0.00,,,0.00,TxWx,2013-02-21 07:22:00,
2013-02-21 02:27:00,18.0,11.0,29.68,SW,225,13.0,18.0,78,0.00,,,0.00,TxWx,2013-02-21 07:27:00,
2013-02-21 02:32:00,18.0,11.0,29.68,West,270,6.0,11.0,79,0.00,,,0.00,TxWx,2013-02-21 07:32:00,
2013-02-21 02:38:00,17.0,11.0,29.68,SW,225,9.0,16.0,79,0.00,,,0.00,TxWx,2013-02-21 07:38:00,
2013-02-21 02:43:00,17.0,11.0,29.68,West,270,10.0,14.0,80,0.00,,,0.00,TxWx,2013-02-21 07:43:00,
2013-02-21 02:48:00,17.0,11.0,29.68,WSW,247,10.0,12.0,80,0.00,,,0.00,TxWx,2013-02-21 07:48:00,
2013-02-21 02:53:00,17.0,11.0,29.68,West,270,10.0,15.0,81,0.00,,,0.00,TxWx,2013-02-21 07:53:00,
2013-02-21 02:58:00,17.0,11.0,29.67,West,270,11.0,14.0,81,0.00,,,0.00,TxWx,2013-02-21 07:58:00,
2013-02-21 03:03:00,17.0,11.0,29.67,WSW,247,10.0,17.0,82,0.00,,,0.00,TxWx,2013-02-21 08:03:00,
2013-02-21 03:08:00,17.0,12.0,29.68,West,270,14.0,14.0,83,0.00,,,0.00,TxWx,2013-02-21 08:08:00,
2013-02-21 03:13:00,16.0,12.0,29.67,SW,225,14.0,16.0,83,0.00,,,0.00,TxWx,2013-02-21 08:13:00,
2013-02-21 03:18:00,17.0,12.0,29.67,WSW,247,9.0,11.0,84,0.00,,,0.00,TxWx,2013-02-21 08:18:00,
2013-02-21 03:23:00,17.0,12.0,29.67,SW,225,18.0,22.0,85,0.00,,,0.00,TxWx,2013-02-21 08:23:00,
2013-02-21 03:28:00,17.0,13.0,29.66,West,270,10.0,10.0,86,0.00,,,0.00,TxWx,2013-02-21 08:28:00,
2013-02-21 03:33:00,17.0,13.0,29.66,West,270,10.0,11.0,87,0.00,,,0.00,TxWx,2013-02-21 08:33:00,
2013-02-21 03:38:00,16.0,12.0,29.66,WSW,247,10.0,11.0,88,0.00,,,0.00,TxWx,2013-02-21 08:38:00,
2013-02-21 03:43:00,16.0,12.0,29.66,SW,225,8.0,14.0,89,0.00,,,0.00,TxWx,2013-02-21 08:43:00,
2013-02-21 03:48:00,16.0,12.0,29.66,WSW,247,8.0,9.0,89,0.00,,,0.00,TxWx,2013-02-21 08:48:00,
2013-02-21 03:54:00,16.0,12.0,29.66,WSW,247,14.0,18.0,90,0.00,,,0.00,TxWx,2013-02-21 08:54:00,
2013-02-21 03:59:00,16.0,13.0,29.66,West,270,8.0,9.0,90,0.00,,,0.00,TxWx,2013-02-21 08:59:00,
2013-02-21 04:04:00,16.0,13.0,29.66,SW,225,6.0,6.0,91,0.00,,,0.00,TxWx,2013-02-21 09:04:00,
2013-02-21 04:09:00,16.0,13.0,29.66,SW,225,6.0,10.0,91,0.00,,,0.00,TxWx,2013-02-21 09:09:00,
2013-02-21 04:14:00,16.0,13.0,29.67,SW,225,11.0,11.0,91,0.00,,,0.00,TxWx,2013-02-21 09:14:00,
2013-02-21 04:19:00,16.0,13.0,29.66,SW,225,7.0,12.0,91,0.00,,,0.00,TxWx,2013-02-21 09:19:00,
2013-02-21 04:24:00,16.0,13.0,29.66,SW,225,13.0,20.0,92,0.00,,,0.00,TxWx,2013-02-21 09:24:00,
2013-02-21 04:29:00,15.0,12.0,29.66,NW,315,12.0,12.0,93,0.00,,,0.00,TxWx,2013-02-21 09:29:00,
2013-02-21 04:34:00,16.0,13.0,29.66,West,270,6.0,6.0,93,0.00,,,0.00,TxWx,2013-02-21 09:34:00,
2013-02-21 04:39:00,15.0,12.0,29.66,West,270,6.0,11.0,93,0.00,,,0.00,TxWx,2013-02-21 09:39:00,
2013-02-21 04:44:00,16.0,12.0,29.67,West,270,13.0,14.0,93,0.00,,,0.00,TxWx,2013-02-21 09:44:00,
2013-02-21 04:49:00,16.0,13.0,29.67,West,270,13.0,14.0,92,0.00,,,0.00,TxWx,2013-02-21 09:49:00,
2013-02-21 04:54:00,16.0,13.0,29.67,SW,225,13.0,13.0,90,0.00,,,0.00,TxWx,2013-02-21 09:54:00,
2013-02-21 05:00:00,16.0,11.0,29.67,SW,225,14.0,17.0,90,0.00,,,0.00,TxWx,2013-02-21 10:00:00,
2013-02-21 05:05:00,15.0,11.0,29.67,WSW,247,13.0,13.0,90,0.00,,,0.00,TxWx,2013-02-21 10:05:00,
2013-02-21 05:10:00,15.0,11.0,29.67,ENE,67,8.0,21.0,90,0.00,,,0.00,TxWx,2013-02-21 10:10:00,
2013-02-21 05:15:00,16.0,12.0,29.67,WNW,292,13.0,13.0,89,0.00,,,0.00,TxWx,2013-02-21 10:15:00,
2013-02-21 05:20:00,15.0,11.0,29.67,SW,225,14.0,14.0,88,0.00,,,0.00,TxWx,2013-02-21 10:20:00,
2013-02-21 05:25:00,15.0,11.0,29.67,West,270,9.0,11.0,87,0.00,,,0.00,TxWx,2013-02-21 10:25:00,
2013-02-21 05:30:00,15.0,11.0,29.68,West,270,6.0,12.0,86,0.00,,,0.00,TxWx,2013-02-21 10:30:00,
2013-02-21 05:35:00,15.0,10.0,29.68,West,270,6.0,8.0,86,0.00,,,0.00,TxWx,2013-02-21 10:35:00,
2013-02-21 05:40:00,15.0,10.0,29.69,WNW,292,16.0,16.0,86,0.00,,,0.00,TxWx,2013-02-21 10:40:00,
2013-02-21 05:45:00,15.0,11.0,29.69,West,270,6.0,8.0,86,0.00,,,0.00,TxWx,2013-02-21 10:45:00,
2013-02-21 05:50:00,15.0,10.0,29.69,West,270,8.0,9.0,85,0.00,,,0.00,TxWx,2013-02-21 10:50:00,
2013-02-21 05:55:00,15.0,11.0,29.69,WSW,247,12.0,14.0,84,0.00,,,0.00,TxWx,2013-02-21 10:55:00,
2013-02-21 06:00:00,15.0,10.0,29.69,WSW,247,12.0,14.0,83,0.00,,,0.00,TxWx,2013-02-21 11:00:00,
2013-02-21 06:06:00,16.0,10.0,29.69,WSW,247,12.0,14.0,82,0.00,,,0.00,TxWx,2013-02-21 11:06:00,
2013-02-21 06:11:00,15.0,9.0,29.69,WNW,292,6.0,18.0,81,0.00,,,0.00,TxWx,2013-02-21 11:11:00,
2013-02-21 06:16:00,15.0,9.0,29.69,WSW,247,8.0,13.0,81,0.00,,,0.00,TxWx,2013-02-21 11:16:00,
2013-02-21 06:21:00,15.0,9.0,29.68,WSW,247,15.0,16.0,80,0.00,,,0.00,TxWx,2013-02-21 11:21:00,
2013-02-21 06:26:00,15.0,8.0,29.69,WSW,247,14.0,21.0,79,0.00,,,0.00,TxWx,2013-02-21 11:26:00,
2013-02-21 06:31:00,14.0,9.0,29.70,WSW,247,11.0,17.0,80,0.00,,,0.00,TxWx,2013-02-21 11:31:00,
2013-02-21 06:36:00,15.0,8.0,29.70,WSW,247,11.0,13.0,79,0.00,,,0.00,TxWx,2013-02-21 11:36:00,
2013-02-21 06:41:00,15.0,9.0,29.70,WSW,247,6.0,10.0,79,0.00,,,0.00,TxWx,2013-02-21 11:41:00,
2013-02-21 06:46:00,14.0,7.0,29.70,West,270,11.0,14.0,78,0.00,,,0.00,TxWx,2013-02-21 11:46:00,
2013-02-21 06:51:00,14.0,7.0,29.71,WNW,292,6.0,8.0,78,0.00,,,0.00,TxWx,2013-02-21 11:51:00,
2013-02-21 06:56:00,15.0,8.0,29.71,West,270,10.0,16.0,78,0.00,,,0.00,TxWx,2013-02-21 11:56:00,
2013-02-21 07:01:00,14.0,7.0,29.72,West,270,8.0,11.0,77,0.00,,,0.00,TxWx,2013-02-21 12:01:00,
2013-02-21 07:06:00,14.0,7.0,29.72,West,270,19.0,23.0,76,0.00,,,0.00,TxWx,2013-02-21 12:06:00,
2013-02-21 07:12:00,14.0,7.0,29.72,SW,225,10.0,14.0,75,0.00,,,0.00,TxWx,2013-02-21 12:12:00,
2013-02-21 07:17:00,14.0,7.0,29.72,NW,315,8.0,11.0,75,0.00,,,0.00,TxWx,2013-02-21 12:17:00,
2013-02-21 07:22:00,14.0,7.0,29.73,WNW,292,6.0,9.0,76,0.00,,,0.00,TxWx,2013-02-21 12:22:00,
2013-02-21 07:27:00,14.0,7.0,29.73,WNW,292,8.0,10.0,77,0.00,,,0.00,TxWx,2013-02-21 12:27:00,
2013-02-21 07:32:00,14.0,7.0,29.73,WSW,247,11.0,14.0,77,0.00,,,0.00,TxWx,2013-02-21 12:32:00,
2013-02-21 07:37:00,14.0,6.0,29.73,WSW,247,11.0,13.0,77,0.00,,,0.00,TxWx,2013-02-21 12:37:00,
2013-02-21 07:42:00,13.0,6.0,29.74,West,270,11.0,12.0,76,0.00,,,0.00,TxWx,2013-02-21 12:42:00,
2013-02-21 07:47:00,13.0,6.0,29.73,West,270,10.0,13.0,76,0.00,,,0.00,TxWx,2013-02-21 12:47:00,
2013-02-21 07:52:00,13.0,6.0,29.74,West,270,12.0,13.0,76,0.00,,,0.00,TxWx,2013-02-21 12:52:00,
2013-02-21 07:57:00,13.0,6.0,29.74,WNW,292,9.0,11.0,76,0.00,,,0.00,TxWx,2013-02-21 12:57:00,
2013-02-21 08:02:00,12.0,4.0,29.74,West,270,19.0,19.0,74,0.00,,,0.00,TxWx,2013-02-21 13:02:00,
2013-02-21 08:07:00,12.0,4.0,29.74,WNW,292,12.0,16.0,74,0.00,,,0.00,TxWx,2013-02-21 13:07:00,
2013-02-21 08:12:00,13.0,5.0,29.74,SW,225,8.0,12.0,74,0.00,,,0.00,TxWx,2013-02-21 13:12:00,
2013-02-21 08:18:00,13.0,5.0,29.75,West,270,10.0,13.0,74,0.00,,,0.00,TxWx,2013-02-21 13:18:00,
2013-02-21 08:23:00,12.0,4.0,29.75,West,270,14.0,16.0,75,0.00,,,0.00,TxWx,2013-02-21 13:23:00,
2013-02-21 08:28:00,12.0,5.0,29.75,SW,225,14.0,24.0,75,0.00,,,0.00,TxWx,2013-02-21 13:28:00,
2013-02-21 08:33:00,12.0,4.0,29.74,West,270,8.0,15.0,75,0.00,,,0.00,TxWx,2013-02-21 13:33:00,
2013-02-21 08:38:00,12.0,4.0,29.75,West,270,8.0,10.0,75,0.00,,,0.00,TxWx,2013-02-21 13:38:00,
2013-02-21 08:43:00,12.0,4.0,29.75,West,270,6.0,9.0,74,0.00,,,0.00,TxWx,2013-02-21 13:43:00,
2013-02-21 08:48:00,12.0,4.0,29.75,West,270,12.0,17.0,74,0.00,,,0.00,TxWx,2013-02-21 13:48:00,
2013-02-21 08:53:00,12.0,4.0,29.75,WSW,247,10.0,10.0,74,0.00,,,0.00,TxWx,2013-02-21 13:53:00,
2013-02-21 08:58:00,12.0,4.0,29.75,West,270,21.0,27.0,73,0.00,,,0.00,TxWx,2013-02-21 13:58:00,
2013-02-21 09:03:00,12.0,4.0,29.75,WSW,247,11.0,15.0,73,0.00,,,0.00,TxWx,2013-02-21 14:03:00,
2013-02-21 09:08:00,12.0,4.0,29.76,SW,225,19.0,19.0,74,0.00,,,0.00,TxWx,2013-02-21 14:08:00,
2013-02-21 09:14:00,12.0,4.0,29.77,NW,315,8.0,21.0,74,0.00,,,0.00,TxWx,2013-02-21 14:14:00,
2013-02-21 09:19:00,12.0,4.0,29.77,SW,225,10.0,11.0,74,0.00,,,0.00,TxWx,2013-02-21 14:19:00,
2013-02-21 09:24:00,12.0,4.0,29.76,West,270,14.0,19.0,73,0.00,,,0.00,TxWx,2013-02-21 14:24:00,
2013-02-21 09:29:00,12.0,4.0,29.76,SW,225,18.0,18.0,73,0.00,,,0.00,TxWx,2013-02-21 14:29:00,
2013-02-21 09:34:00,12.0,4.0,29.76,WSW,247,11.0,14.0,73,0.00,,,0.00,TxWx,2013-02-21 14:34:00,
2013-02-21 09:39:00,12.0,4.0,29.76,WSW,247,13.0,13.0,72,0.00,,,0.00,TxWx,2013-02-21 14:39:00,
2013-02-21 09:44:00,11.0,3.0,29.77,West,270,20.0,24.0,73,0.00,,,0.00,TxWx,2013-02-21 14:44:00,
2013-02-21 09:49:00,12.0,4.0,29.77,West,270,9.0,21.0,73,0.00,,,0.00,TxWx,2013-02-21 14:49:00,
2013-02-21 09:54:00,11.0,3.0,29.78,SW,225,18.0,18.0,74,0.00,,,0.00,TxWx,2013-02-21 14:54:00,
2013-02-21 09:59:00,11.0,4.0,29.78,WSW,247,20.0,20.0,75,0.00,,,0.00,TxWx,2013-02-21 14:59:00,
2013-02-21 10:04:00,11.0,4.0,29.78,WNW,292,19.0,25.0,76,0.00,,,0.00,TxWx,2013-02-21 15:04:00,
2013-02-21 10:09:00,11.0,4.0,29.78,West,270,10.0,10.0,76,0.00,,,0.00,TxWx,2013-02-21 15:09:00,
2013-02-21 10:15:00,11.0,4.0,29.78,SW,225,13.0,19.0,76,0.00,,,0.00,TxWx,2013-02-21 15:15:00,
2013-02-21 10:20:00,11.0,4.0,29.78,SW,225,8.0,8.0,77,0.00,,,0.00,TxWx,2013-02-21 15:20:00,
2013-02-21 10:25:00,11.0,4.0,29.79,SSW,202,12.0,14.0,76,0.00,,,0.00,TxWx,2013-02-21 15:25:00,
2013-02-21 10:30:00,12.0,5.0,29.78,WSW,247,14.0,19.0,76,0.00,,,0.00,TxWx,2013-02-21 15:30:00,
2013-02-21 10:35:00,11.0,4.0,29.79,SW,225,10.0,16.0,76,0.00,,,0.00,TxWx,2013-02-21 15:35:00,
2013-02-21 10:40:00,12.0,5.0,29.79,West,270,13.0,16.0,76,0.00,,,0.00,TxWx,2013-02-21 15:40:00,
2013-02-21 10:45:00,11.0,4.0,29.80,WNW,292,15.0,19.0,75,0.00,,,0.00,TxWx,2013-02-21 15:45:00,
2013-02-21 10:50:00,11.0,3.0,29.80,WSW,247,11.0,13.0,75,0.00,,,0.00,TxWx,2013-02-21 15:50:00,
2013-02-21 10:55:00,11.0,4.0,29.80,WSW,247,16.0,16.0,76,0.00,,,0.00,TxWx,2013-02-21 15:55:00,
2013-02-21 11:00:00,11.0,4.0,29.81,West,270,9.0,9.0,77,0.00,,,0.00,TxWx,2013-02-21 16:00:00,
2013-02-21 11:02:00,13.0,7.0,30.08,West,270,6.0,8.0,82,0.00,,,0.00,TxWx,2013-02-21 16:02:00,
2013-02-21 11:05:00,11.0,4.0,29.81,West,270,14.0,16.0,75,0.00,,,0.00,TxWx,2013-02-21 16:05:00,
2013-02-21 11:10:00,11.0,3.0,29.80,WNW,292,7.0,13.0,75,0.00,,,0.00,TxWx,2013-02-21 16:10:00,
2013-02-21 11:15:00,12.0,5.0,29.81,SW,225,11.0,17.0,75,0.00,,,0.00,TxWx,2013-02-21 16:15:00,
2013-02-21 11:21:00,12.0,5.0,29.81,West,270,6.0,9.0,76,0.00,,,0.00,TxWx,2013-02-21 16:21:00,
2013-02-21 11:26:00,12.0,4.0,29.81,SW,225,8.0,13.0,75,0.00,,,0.00,TxWx,2013-02-21 16:26:00,
2013-02-21 11:31:00,11.0,3.0,29.81,SW,225,22.0,25.0,74,0.00,,,0.00,TxWx,2013-02-21 16:31:00,
2013-02-21 11:36:00,11.0,3.0,29.81,WSW,247,13.0,14.0,74,0.00,,,0.00,TxWx,2013-02-21 16:36:00,
2013-02-21 11:41:00,12.0,4.0,29.81,SSW,202,16.0,31.0,74,0.00,,,0.00,TxWx,2013-02-21 16:41:00,
2013-02-21 11:46:00,12.0,4.0,29.81,West,270,7.0,17.0,74,0.00,,,0.00,TxWx,2013-02-21 16:46:00,
2013-02-21 11:51:00,12.0,4.0,29.81,WSW,247,12.0,13.0,74,0.00,,,0.00,TxWx,2013-02-21 16:51:00,
2013-02-21 11:56:00,13.0,5.0,29.81,West,270,9.0,10.0,74,0.00,,,0.00,TxWx,2013-02-21 16:56:00,
2013-02-21 12:01:00,13.0,5.0,29.81,West,270,12.0,14.0,74,0.00,,,0.00,TxWx,2013-02-21 17:01:00,
2013-02-21 12:06:00,13.0,5.0,29.81,SW,225,13.0,13.0,74,0.00,,,0.00,TxWx,2013-02-21 17:06:00,
2013-02-21 12:11:00,13.0,5.0,29.81,WSW,247,12.0,18.0,73,0.00,,,0.00,TxWx,2013-02-21 17:11:00,
2013-02-21 12:17:00,13.0,5.0,29.81,WSW,247,10.0,19.0,74,0.00,,,0.00,TxWx,2013-02-21 17:17:00,
2013-02-21 12:22:00,13.0,5.0,29.81,SW,225,13.0,21.0,73,0.00,,,0.00,TxWx,2013-02-21 17:22:00,
2013-02-21 12:27:00,13.0,5.0,29.82,WSW,247,19.0,21.0,74,0.00,,,0.00,TxWx,2013-02-21 17:27:00,
2013-02-21 12:32:00,13.0,5.0,29.81,West,270,13.0,18.0,73,0.00,,,0.00,TxWx,2013-02-21 17:32:00,
2013-02-21 12:33:00,13.0,9.0,30.13,SW,225,5.0,5.0,86,0.00,,,0.00,TxWx,2013-02-21 17:33:00,
2013-02-21 12:34:00,13.0,9.0,30.13,West,270,10.0,11.0,86,0.00,,,0.00,TxWx,2013-02-21 17:34:00,
2013-02-21 12:35:00,14.0,10.0,30.13,West,270,12.0,12.0,86,0.00,,,0.00,TxWx,2013-02-21 17:35:00,
2013-02-21 12:37:00,13.0,5.0,29.81,SW,225,13.0,17.0,73,0.00,,,0.00,TxWx,2013-02-21 17:37:00,
2013-02-21 12:42:00,12.0,4.0,29.81,SW,225,16.0,17.0,73,0.00,,,0.00,TxWx,2013-02-21 17:42:00,
2013-02-21 12:47:00,13.0,5.0,29.81,WSW,247,13.0,16.0,74,0.00,,,0.00,TxWx,2013-02-21 17:47:00,
2013-02-21 12:52:00,13.0,5.0,29.81,WSW,247,8.0,13.0,72,0.00,,,0.00,TxWx,2013-02-21 17:52:00,
2013-02-21 12:57:00,13.0,5.0,29.82,WSW,247,11.0,16.0,73,0.00,,,0.00,TxWx,2013-02-21 17:57:00,
2013-02-21 13:02:00,13.0,5.0,29.81,WSW,247,15.0,16.0,73,0.00,,,0.00,TxWx,2013-02-21 18:02:00,
2013-02-21 13:07:00,13.0,5.0,29.82,SW,225,13.0,14.0,72,0.00,,,0.00,TxWx,2013-02-21 18:07:00,
2013-02-21 13:12:00,13.0,5.0,29.81,WSW,247,16.0,22.0,73,0.00,,,0.00,TxWx,2013-02-21 18:12:00,
2013-02-21 13:17:00,13.0,5.0,29.81,SW,225,19.0,23.0,72,0.00,,,0.00,TxWx,2013-02-21 18:17:00,
2013-02-21 13:23:00,13.0,5.0,29.82,SSW,202,11.0,16.0,72,0.00,,,0.00,TxWx,2013-02-21 18:23:00,
2013-02-21 13:28:00,14.0,6.0,29.82,SW,225,23.0,23.0,73,0.00,,,0.00,TxWx,2013-02-21 18:28:00,
2013-02-21 13:33:00,13.0,4.0,29.82,West,270,10.0,16.0,71,0.00,,,0.00,TxWx,2013-02-21 18:33:00,
2013-02-21 13:38:00,13.0,5.0,29.83,West,270,13.0,23.0,73,0.00,,,0.00,TxWx,2013-02-21 18:38:00,
2013-02-21 13:43:00,14.0,6.0,29.82,SW,225,18.0,27.0,73,0.00,,,0.00,TxWx,2013-02-21 18:43:00,
2013-02-21 13:48:00,13.0,5.0,29.82,West,270,11.0,18.0,72,0.00,,,0.00,TxWx,2013-02-21 18:48:00,
2013-02-21 13:53:00,13.0,5.0,29.82,SW,225,19.0,19.0,72,0.00,,,0.00,TxWx,2013-02-21 18:53:00,
2013-02-21 13:58:00,13.0,5.0,29.83,NW,315,9.0,14.0,73,0.00,,,0.00,TxWx,2013-02-21 18:58:00,
2013-02-21 13:59:00,15.0,11.0,30.16,WNW,292,5.0,5.0,88,0.00,,,0.00,TxWx,2013-02-21 18:59:00,
2013-02-21 14:00:00,15.0,11.0,30.16,West,270,4.0,5.0,88,0.00,,,0.00,TxWx,2013-02-21 19:00:00,
2013-02-21 14:01:00,15.0,11.0,30.16,NW,315,6.0,7.0,88,0.00,,,0.00,TxWx,2013-02-21 19:01:00,
2013-02-21 14:02:00,16.0,12.0,30.16,WSW,247,6.0,6.0,88,0.00,,,0.00,TxWx,2013-02-21 19:02:00,
2013-02-21 14:03:00,13.0,5.0,29.82,SW,225,23.0,27.0,72,0.00,,,0.00,TxWx,2013-02-21 19:03:00,
2013-02-21 14:08:00,13.0,4.0,29.83,WSW,247,15.0,21.0,71,0.00,,,0.00,TxWx,2013-02-21 19:08:00,
2013-02-21 14:09:00,15.0,11.0,30.16,West,270,5.0,6.0,88,0.00,,,0.00,TxWx,2013-02-21 19:09:00,
2013-02-21 14:10:00,15.0,11.0,30.16,WNW,292,6.0,6.0,88,0.00,,,0.00,TxWx,2013-02-21 19:10:00,
2013-02-21 14:11:00,15.0,11.0,30.16,NW,315,5.0,7.0,88,0.00,,,0.00,TxWx,2013-02-21 19:11:00,
2013-02-21 14:12:00,15.0,11.0,30.16,NW,315,6.0,6.0,88,0.00,,,0.00,TxWx,2013-02-21 19:12:00,
2013-02-21 14:13:00,13.0,5.0,29.82,WSW,247,13.0,16.0,72,0.00,,,0.00,TxWx,2013-02-21 19:13:00,
2013-02-21 14:14:00,15.0,11.0,30.15,NW,315,6.0,10.0,88,0.00,,,0.00,TxWx,2013-02-21 19:14:00,
2013-02-21 14:15:00,16.0,11.0,30.16,WNW,292,6.0,7.0,88,0.00,,,0.00,TxWx,2013-02-21 19:15:00,
2013-02-21 14:16:00,15.0,11.0,30.16,NW,315,6.0,6.0,88,0.00,,,0.00,TxWx,2013-02-21 19:16:00,
2013-02-21 14:18:00,16.0,12.0,30.15,WNW,292,3.0,5.0,88,0.00,,,0.00,TxWx,2013-02-21 19:18:00,
2013-02-21 14:19:00,13.0,5.0,29.83,SW,225,16.0,21.0,72,0.00,,,0.00,TxWx,2013-02-21 19:19:00,
2013-02-21 14:20:00,15.0,11.0,30.16,WNW,292,5.0,6.0,88,0.00,,,0.00,TxWx,2013-02-21 19:20:00,
2013-02-21 14:21:00,15.0,11.0,30.16,West,270,6.0,8.0,88,0.00,,,0.00,TxWx,2013-02-21 19:21:00,
2013-02-21 14:24:00,14.0,6.0,29.83,WSW,247,17.0,20.0,72,0.00,,,0.00,TxWx,2013-02-21 19:24:00,
2013-02-21 14:29:00,13.0,5.0,29.84,SW,225,13.0,21.0,72,0.00,,,0.00,TxWx,2013-02-21 19:29:00,
2013-02-21 14:30:00,16.0,12.0,30.15,NW,315,6.0,8.0,88,0.00,,,0.00,TxWx,2013-02-21 19:30:00,
2013-02-21 14:31:00,15.0,11.0,30.15,WNW,292,4.0,5.0,88,0.00,,,0.00,TxWx,2013-02-21 19:31:00,
2013-02-21 14:32:00,15.0,11.0,30.15,NNW,337,5.0,6.0,88,0.00,,,0.00,TxWx,2013-02-21 19:32:00,
2013-02-21 14:33:00,15.0,11.0,30.15,NW,315,4.0,6.0,88,0.00,,,0.00,TxWx,2013-02-21 19:33:00,
2013-02-21 14:34:00,13.0,5.0,29.83,SW,225,13.0,18.0,72,0.00,,,0.00,TxWx,2013-02-21 19:34:00,
2013-02-21 14:39:00,14.0,6.0,29.84,SW,225,21.0,23.0,72,0.00,,,0.00,TxWx,2013-02-21 19:39:00,
2013-02-21 14:44:00,14.0,6.0,29.84,SW,225,13.0,13.0,73,0.00,,,0.00,TxWx,2013-02-21 19:44:00,
2013-02-21 14:49:00,14.0,5.0,29.84,WSW,247,15.0,16.0,72,0.00,,,0.00,TxWx,2013-02-21 19:49:00,
2013-02-21 14:54:00,14.0,6.0,29.84,SW,225,18.0,21.0,73,0.00,,,0.00,TxWx,2013-02-21 19:54:00,
2013-02-21 14:59:00,14.0,5.0,29.85,SW,225,13.0,14.0,72,0.00,,,0.00,TxWx,2013-02-21 19:59:00,
2013-02-21 15:04:00,13.0,5.0,29.85,SW,225,13.0,19.0,71,0.00,,,0.00,TxWx,2013-02-21 20:04:00,
2013-02-21 15:09:00,15.0,6.0,29.85,SW,225,13.0,21.0,72,0.00,,,0.00,TxWx,2013-02-21 20:09:00,
2013-02-21 15:15:00,14.0,5.0,29.86,West,270,11.0,13.0,71,0.00,,,0.00,TxWx,2013-02-21 20:15:00,
2013-02-21 15:20:00,15.0,6.0,29.86,West,270,8.0,11.0,72,0.00,,,0.00,TxWx,2013-02-21 20:20:00,
2013-02-21 15:25:00,15.0,6.0,29.86,West,270,9.0,13.0,71,0.00,,,0.00,TxWx,2013-02-21 20:25:00,
2013-02-21 15:30:00,15.0,6.0,29.86,West,270,11.0,13.0,71,0.00,,,0.00,TxWx,2013-02-21 20:30:00,
2013-02-21 15:35:00,15.0,6.0,29.87,SW,225,4.0,7.0,71,0.00,,,0.00,TxWx,2013-02-21 20:35:00,
2013-02-21 15:40:00,16.0,7.0,29.87,West,270,12.0,12.0,71,0.00,,,0.00,TxWx,2013-02-21 20:40:00,
2013-02-21 15:45:00,15.0,6.0,29.87,SW,225,8.0,13.0,70,0.00,,,0.00,TxWx,2013-02-21 20:45:00,
2013-02-21 15:50:00,14.0,5.0,29.88,SW,225,11.0,12.0,71,0.00,,,0.00,TxWx,2013-02-21 20:50:00,
2013-02-21 15:55:00,15.0,6.0,29.88,WSW,247,11.0,19.0,71,0.00,,,0.00,TxWx,2013-02-21 20:55:00,
2013-02-21 16:00:00,15.0,6.0,29.88,West,270,11.0,13.0,71,0.00,,,0.00,TxWx,2013-02-21 21:00:00,
2013-02-21 16:04:00,16.0,12.0,30.13,NW,315,3.0,4.0,89,0.00,,,0.00,TxWx,2013-02-21 21:04:00,
2013-02-21 16:06:00,15.0,6.0,29.89,SW,225,17.0,18.0,71,0.00,,,0.00,TxWx,2013-02-21 21:06:00,
2013-02-21 16:11:00,16.0,7.0,29.90,SSW,202,6.0,11.0,71,0.00,,,0.00,TxWx,2013-02-21 21:11:00,
2013-02-21 16:16:00,15.0,6.0,29.89,SW,225,13.0,13.0,71,0.00,,,0.00,TxWx,2013-02-21 21:16:00,
2013-02-21 16:21:00,15.0,6.0,29.90,West,270,8.0,10.0,72,0.00,,,0.00,TxWx,2013-02-21 21:21:00,
2013-02-21 16:26:00,15.0,6.0,29.90,SW,225,11.0,15.0,71,0.00,,,0.00,TxWx,2013-02-21 21:26:00,
2013-02-21 16:31:00,15.0,6.0,29.90,SW,225,15.0,18.0,72,0.00,,,0.00,TxWx,2013-02-21 21:31:00,
2013-02-21 16:36:00,14.0,6.0,29.91,South,180,14.0,14.0,72,0.00,,,0.00,TxWx,2013-02-21 21:36:00,
2013-02-21 16:41:00,14.0,6.0,29.91,West,270,11.0,13.0,73,0.00,,,0.00,TxWx,2013-02-21 21:41:00,
2013-02-21 16:46:00,14.0,6.0,29.91,West,270,10.0,12.0,73,0.00,,,0.00,TxWx,2013-02-21 21:46:00,
2013-02-21 16:51:00,15.0,7.0,29.92,SW,225,7.0,8.0,73,0.00,,,0.00,TxWx,2013-02-21 21:51:00,
2013-02-21 16:56:00,15.0,7.0,29.92,WNW,292,8.0,8.0,73,0.00,,,0.00,TxWx,2013-02-21 21:56:00,
2013-02-21 17:01:00,15.0,7.0,29.93,WSW,247,14.0,17.0,73,0.00,,,0.00,TxWx,2013-02-21 22:01:00,
2013-02-21 17:07:00,15.0,7.0,29.93,WNW,292,9.0,10.0,73,0.00,,,0.00,TxWx,2013-02-21 22:07:00,
2013-02-21 17:12:00,15.0,7.0,29.94,SW,225,4.0,6.0,73,0.00,,,0.00,TxWx,2013-02-21 22:12:00,
2013-02-21 17:17:00,15.0,7.0,29.94,SW,225,5.0,6.0,74,0.00,,,0.00,TxWx,2013-02-21 22:17:00,
2013-02-21 17:22:00,14.0,6.0,29.94,WNW,292,9.0,9.0,74,0.00,,,0.00,TxWx,2013-02-21 22:22:00,
2013-02-21 17:27:00,14.0,7.0,29.94,West,270,8.0,11.0,75,0.00,,,0.00,TxWx,2013-02-21 22:27:00,
2013-02-21 17:32:00,14.0,7.0,29.94,WNW,292,7.0,13.0,75,0.00,,,0.00,TxWx,2013-02-21 22:32:00,
2013-02-21 17:33:00,16.0,13.0,30.10,NNW,337,6.0,6.0,92,0.00,,,0.00,TxWx,2013-02-21 22:33:00,
2013-02-21 17:34:00,15.0,12.0,30.10,NW,315,5.0,5.0,92,0.00,,,0.00,TxWx,2013-02-21 22:34:00,
2013-02-21 17:35:00,16.0,13.0,30.10,North,0,4.0,5.0,92,0.00,,,0.00,TxWx,2013-02-21 22:35:00,
2013-02-21 17:36:00,16.0,13.0,30.10,NW,315,3.0,3.0,92,0.00,,,0.00,TxWx,2013-02-21 22:36:00,
2013-02-21 17:37:00,14.0,7.0,29.95,WSW,247,7.0,10.0,76,0.00,,,0.00,TxWx,2013-02-21 22:37:00,
2013-02-21 17:42:00,14.0,7.0,29.95,WSW,247,6.0,10.0,76,0.00,,,0.00,TxWx,2013-02-21 22:42:00,
2013-02-21 17:47:00,14.0,7.0,29.95,West,270,11.0,11.0,76,0.00,,,0.00,TxWx,2013-02-21 22:47:00,
2013-02-21 17:52:00,14.0,7.0,29.96,West,270,5.0,8.0,76,0.00,,,0.00,TxWx,2013-02-21 22:52:00,
2013-02-21 17:57:00,14.0,7.0,29.96,West,270,12.0,13.0,77,0.00,,,0.00,TxWx,2013-02-21 22:57:00,
2013-02-21 18:02:00,14.0,7.0,29.97,West,270,7.0,9.0,77,0.00,,,0.00,TxWx,2013-02-21 23:02:00,
2013-02-21 18:07:00,14.0,7.0,29.97,WNW,292,16.0,18.0,77,0.00,,,0.00,TxWx,2013-02-21 23:07:00,
2013-02-21 18:13:00,14.0,7.0,29.97,West,270,10.0,13.0,78,0.00,,,0.00,TxWx,2013-02-21 23:13:00,
2013-02-21 18:18:00,13.0,7.0,29.97,West,270,13.0,13.0,78,0.00,,,0.00,TxWx,2013-02-21 23:18:00,
2013-02-21 18:23:00,13.0,6.0,29.97,West,270,5.0,8.0,78,0.00,,,0.00,TxWx,2013-02-21 23:23:00,
2013-02-21 18:28:00,13.0,7.0,29.97,WNW,292,12.0,12.0,79,0.00,,,0.00,TxWx,2013-02-21 23:28:00,
2013-02-21 18:33:00,13.0,7.0,29.98,WNW,292,5.0,7.0,79,0.00,,,0.00,TxWx,2013-02-21 23:33:00,
2013-02-21 18:38:00,13.0,7.0,29.99,WNW,292,8.0,8.0,79,0.00,,,0.00,TxWx,2013-02-21 23:38:00,
2013-02-21 18:43:00,14.0,8.0,29.99,WSW,247,8.0,8.0,79,0.00,,,0.00,TxWx,2013-02-21 23:43:00,
2013-02-21 18:48:00,14.0,8.0,29.99,West,270,8.0,10.0,79,0.00,,,0.00,TxWx,2013-02-21 23:48:00,
2013-02-21 18:53:00,14.0,8.0,29.99,West,270,3.0,6.0,80,0.00,,,0.00,TxWx,2013-02-21 23:53:00,
2013-02-21 18:58:00,13.0,8.0,29.99,WSW,247,4.0,9.0,80,0.00,,,0.00,TxWx,2013-02-21 23:58:00,
2013-02-21 19:03:00,13.0,8.0,29.99,SSW,202,1.0,4.0,80,0.00,,,0.00,TxWx,2013-02-22 00:03:00,
2013-02-21 19:09:00,13.0,7.0,29.99,West,270,2.0,3.0,80,0.00,,,0.00,TxWx,2013-02-22 00:09:00,
2013-02-21 19:14:00,13.0,7.0,30.00,West,270,4.0,5.0,80,0.00,,,0.00,TxWx,2013-02-22 00:14:00,
2013-02-21 19:19:00,14.0,8.0,30.00,West,270,6.0,6.0,80,0.00,,,0.00,TxWx,2013-02-22 00:19:00,
2013-02-21 19:24:00,13.0,7.0,29.99,West,270,5.0,6.0,81,0.00,,,0.00,TxWx,2013-02-22 00:24:00,
2013-02-21 19:29:00,13.0,7.0,30.00,West,270,5.0,6.0,81,0.00,,,0.00,TxWx,2013-02-22 00:29:00,
2013-02-21 19:34:00,13.0,7.0,30.00,West,270,6.0,6.0,81,0.00,,,0.00,TxWx,2013-02-22 00:34:00,
2013-02-21 19:39:00,14.0,8.0,30.00,WSW,247,5.0,8.0,81,0.00,,,0.00,TxWx,2013-02-22 00:39:00,
2013-02-21 19:44:00,14.0,8.0,30.01,SW,225,6.0,6.0,81,0.00,,,0.00,TxWx,2013-02-22 00:44:00,
2013-02-21 19:49:00,14.0,8.0,30.01,West,270,6.0,6.0,81,0.00,,,0.00,TxWx,2013-02-22 00:49:00,
2013-02-21 19:54:00,14.0,8.0,30.01,WNW,292,4.0,5.0,81,0.00,,,0.00,TxWx,2013-02-22 00:54:00,
2013-02-21 19:59:00,14.0,8.0,30.01,WSW,247,3.0,3.0,81,0.00,,,0.00,TxWx,2013-02-22 00:59:00,
2013-02-21 20:04:00,14.0,8.0,30.02,West,270,4.0,5.0,81,0.00,,,0.00,TxWx,2013-02-22 01:04:00,
2013-02-21 20:09:00,14.0,8.0,30.02,WSW,247,5.0,5.0,81,0.00,,,0.00,TxWx,2013-02-22 01:09:00,
2013-02-21 20:14:00,14.0,8.0,30.03,SW,225,5.0,5.0,81,0.00,,,0.00,TxWx,2013-02-22 01:14:00,
2013-02-21 20:20:00,14.0,8.0,30.04,WSW,247,8.0,8.0,81,0.00,,,0.00,TxWx,2013-02-22 01:20:00,
2013-02-21 20:25:00,14.0,8.0,30.05,SW,225,12.0,13.0,81,0.00,,,0.00,TxWx,2013-02-22 01:25:00,
2013-02-21 20:30:00,14.0,8.0,30.05,SSW,202,6.0,8.0,81,0.00,,,0.00,TxWx,2013-02-22 01:30:00,
2013-02-21 20:35:00,14.0,8.0,30.06,WSW,247,6.0,7.0,81,0.00,,,0.00,TxWx,2013-02-22 01:35:00,
2013-02-21 20:40:00,13.0,7.0,30.07,SW,225,5.0,6.0,81,0.00,,,0.00,TxWx,2013-02-22 01:40:00,
2013-02-21 20:45:00,13.0,7.0,30.07,SW,225,6.0,6.0,81,0.00,,,0.00,TxWx,2013-02-22 01:45:00,
2013-02-21 20:50:00,13.0,8.0,30.07,West,270,10.0,10.0,82,0.00,,,0.00,TxWx,2013-02-22 01:50:00,
2013-02-21 20:55:00,14.0,8.0,30.08,West,270,5.0,6.0,82,0.00,,,0.00,TxWx,2013-02-22 01:55:00,
2013-02-21 21:00:00,13.0,7.0,30.08,West,270,6.0,10.0,82,0.00,,,0.00,TxWx,2013-02-22 02:00:00,
2013-02-21 21:07:00,13.0,8.0,30.08,SW,225,12.0,13.0,82,0.00,,,0.00,TxWx,2013-02-22 02:07:00,
2013-02-21 21:12:00,14.0,9.0,30.08,SW,225,7.0,11.0,83,0.00,,,0.00,TxWx,2013-02-22 02:12:00,
2013-02-21 21:17:00,14.0,9.0,30.08,SW,225,5.0,6.0,83,0.00,,,0.00,TxWx,2013-02-22 02:17:00,
2013-02-21 21:23:00,14.0,8.0,30.09,WSW,247,7.0,8.0,83,0.00,,,0.00,TxWx,2013-02-22 02:23:00,
2013-02-21 21:28:00,13.0,8.0,30.09,West,270,10.0,10.0,83,0.00,,,0.00,TxWx,2013-02-22 02:28:00,
2013-02-21 21:33:00,13.0,8.0,30.09,West,270,8.0,8.0,84,0.00,,,0.00,TxWx,2013-02-22 02:33:00,
2013-02-21 21:38:00,13.0,8.0,30.09,West,270,6.0,10.0,84,0.00,,,0.00,TxWx,2013-02-22 02:38:00,
2013-02-21 21:43:00,13.0,8.0,30.09,WSW,247,5.0,7.0,84,0.00,,,0.00,TxWx,2013-02-22 02:43:00,
2013-02-21 21:48:00,14.0,9.0,30.10,WNW,292,8.0,9.0,85,0.00,,,0.00,TxWx,2013-02-22 02:48:00,
2013-02-21 21:53:00,13.0,8.0,30.10,SW,225,12.0,14.0,85,0.00,,,0.00,TxWx,2013-02-22 02:53:00,
2013-02-21 21:58:00,13.0,8.0,30.10,West,270,5.0,7.0,85,0.00,,,0.00,TxWx,2013-02-22 02:58:00,
2013-02-21 22:03:00,13.0,8.0,30.11,SW,225,5.0,6.0,85,0.00,,,0.00,TxWx,2013-02-22 03:03:00,
2013-02-21 22:08:00,14.0,9.0,30.12,NW,315,5.0,13.0,86,0.00,,,0.00,TxWx,2013-02-22 03:08:00,
2013-02-21 22:13:00,13.0,9.0,30.12,SW,225,13.0,13.0,86,0.00,,,0.00,TxWx,2013-02-22 03:13:00,
2013-02-21 22:19:00,13.0,8.0,30.12,West,270,8.0,11.0,86,0.00,,,0.00,TxWx,2013-02-22 03:19:00,
2013-02-21 22:24:00,13.0,10.0,30.13,West,270,5.0,7.0,86,0.00,,,0.00,TxWx,2013-02-22 03:24:00,
2013-02-21 22:29:00,13.0,9.0,30.13,SSW,202,8.0,11.0,86,0.00,,,0.00,TxWx,2013-02-22 03:29:00,
2013-02-21 22:36:00,13.0,9.0,30.14,West,270,8.0,10.0,86,0.00,,,0.00,TxWx,2013-02-22 03:36:00,
2013-02-21 22:41:00,14.0,10.0,30.14,West,270,6.0,10.0,87,0.00,,,0.00,TxWx,2013-02-22 03:41:00,
2013-02-21 22:46:00,13.0,9.0,30.14,SW,225,10.0,10.0,87,0.00,,,0.00,TxWx,2013-02-22 03:46:00,
2013-02-21 22:51:00,14.0,10.0,30.14,SW,225,5.0,6.0,87,0.00,,,0.00,TxWx,2013-02-22 03:51:00,
2013-02-21 22:56:00,14.0,10.0,30.14,West,270,5.0,10.0,87,0.00,,,0.00,TxWx,2013-02-22 03:56:00,
2013-02-21 23:01:00,14.0,10.0,30.14,NW,315,5.0,6.0,87,0.00,,,0.00,TxWx,2013-02-22 04:01:00,
2013-02-21 23:06:00,14.0,10.0,30.14,West,270,6.0,9.0,87,0.00,,,0.00,TxWx,2013-02-22 04:06:00,
2013-02-21 23:11:00,14.0,10.0,30.14,West,270,3.0,4.0,87,0.00,,,0.00,TxWx,2013-02-22 04:11:00,
2013-02-21 23:16:00,14.0,10.0,30.14,West,270,8.0,8.0,87,0.00,,,0.00,TxWx,2013-02-22 04:16:00,
2013-02-21 23:21:00,15.0,11.0,30.15,WNW,292,3.0,5.0,87,0.00,,,0.00,TxWx,2013-02-22 04:21:00,
2013-02-21 23:26:00,15.0,11.0,30.15,West,270,5.0,6.0,87,0.00,,,0.00,TxWx,2013-02-22 04:26:00,
2013-02-21 23:32:00,14.0,10.0,30.15,WNW,292,5.0,7.0,87,0.00,,,0.00,TxWx,2013-02-22 04:32:00,
2013-02-21 23:37:00,15.0,11.0,30.15,WNW,292,8.0,10.0,87,0.00,,,0.00,TxWx,2013-02-22 04:37:00,
2013-02-21 23:42:00,14.0,10.0,30.16,West,270,5.0,6.0,87,0.00,,,0.00,TxWx,2013-02-22 04:42:00,
2013-02-21 23:47:00,15.0,11.0,30.16,NW,315,7.0,7.0,88,0.00,,,0.00,TxWx,2013-02-22 04:47:00,
2013-02-21 23:52:00,15.0,11.0,30.15,NW,315,8.0,9.0,88,0.00,,,0.00,TxWx,2013-02-22 04:52:00,
2013-02-21 23:57:00,15.0,11.0,30.15,NW,315,7.0,7.0,88,0.00,,,0.00,TxWx,2013-02-22 04:57:00,